sensor_id;sensor_type;location;lat;lon;timestamp;temperature;humidity
4058;DHT22;2044;48.692;9.020;2023-05-28T00:02:22;9.60;99.90
4058;DHT22;2044;48.692;9.020;2023-05-28T00:04:48;9.40;99.90
4058;DHT22;2044;48.692;9.020;2023-05-28T00:07:15;9.40;99.90
4058;DHT22;2044;48.692;9.020;2023-05-28T00:09:43;9.30;99.90
4058;DHT22;2044;48.692;9.020;2023-05-28T00:12:10;9.30;99.90
4058;DHT22;2044;48.692;9.020;2023-05-28T00:14:37;9.20;99.90
4058;DHT22;2044;48.692;9.020;2023-05-28T00:17:04;9.30;99.90
4058;DHT22;2044;48.692;9.020;2023-05-28T00:19:31;9.30;99.90
4058;DHT22;2044;48.692;9.020;2023-05-28T00:21:57;9.20;99.90
4058;DHT22;2044;48.692;9.020;2023-05-28T00:24:24;9.10;99.90
4058;DHT22;2044;48.692;9.020;2023-05-28T00:26:53;9.10;99.90
4058;DHT22;2044;48.692;9.020;2023-05-28T00:29:20;9.10;99.90
4058;DHT22;2044;48.692;9.020;2023-05-28T00:31:46;9.00;99.90
4058;DHT22;2044;48.692;9.020;2023-05-28T00:34:13;9.00;99.90
4058;DHT22;2044;48.692;9.020;2023-05-28T00:36:40;9.00;99.90
4058;DHT22;2044;48.692;9.020;2023-05-28T00:39:06;9.00;99.90
4058;DHT22;2044;48.692;9.020;2023-05-28T00:41:33;9.00;99.90
4058;DHT22;2044;48.692;9.020;2023-05-28T00:44:03;8.90;99.90
4058;DHT22;2044;48.692;9.020;2023-05-28T00:46:31;8.90;99.90
4058;DHT22;2044;48.692;9.020;2023-05-28T00:48:58;8.90;99.90
4058;DHT22;2044;48.692;9.020;2023-05-28T00:51:24;8.90;99.90
4058;DHT22;2044;48.692;9.020;2023-05-28T00:53:52;8.70;99.90
4058;DHT22;2044;48.692;9.020;2023-05-28T00:56:19;8.70;99.90
4058;DHT22;2044;48.692;9.020;2023-05-28T00:58:48;8.60;99.90
4058;DHT22;2044;48.692;9.020;2023-05-28T01:01:17;8.50;99.90
4058;DHT22;2044;48.692;9.020;2023-05-28T01:03:44;8.40;99.90
4058;DHT22;2044;48.692;9.020;2023-05-28T01:06:12;8.40;99.90
4058;DHT22;2044;48.692;9.020;2023-05-28T01:08:40;8.30;99.90
4058;DHT22;2044;48.692;9.020;2023-05-28T01:11:09;8.30;99.90
4058;DHT22;2044;48.692;9.020;2023-05-28T01:13:37;8.30;99.90
4058;DHT22;2044;48.692;9.020;2023-05-28T01:16:05;8.30;99.90
4058;DHT22;2044;48.692;9.020;2023-05-28T01:18:33;8.20;99.90
4058;DHT22;2044;48.692;9.020;2023-05-28T01:21:01;8.20;99.90
4058;DHT22;2044;48.692;9.020;2023-05-28T01:23:28;8.10;99.90
4058;DHT22;2044;48.692;9.020;2023-05-28T01:25:57;8.10;99.90
4058;DHT22;2044;48.692;9.020;2023-05-28T01:28:24;8.10;99.90
4058;DHT22;2044;48.692;9.020;2023-05-28T01:30:51;8.20;99.90
4058;DHT22;2044;48.692;9.020;2023-05-28T01:33:19;8.10;99.90
4058;DHT22;2044;48.692;9.020;2023-05-28T01:35:49;8.10;99.90
4058;DHT22;2044;48.692;9.020;2023-05-28T01:38:17;8.10;99.90
4058;DHT22;2044;48.692;9.020;2023-05-28T01:40:48;8.10;99.90
4058;DHT22;2044;48.692;9.020;2023-05-28T01:43:16;8.10;99.90
4058;DHT22;2044;48.692;9.020;2023-05-28T01:45:43;8.00;99.90
4058;DHT22;2044;48.692;9.020;2023-05-28T01:48:10;8.00;99.90
4058;DHT22;2044;48.692;9.020;2023-05-28T01:50:38;7.90;99.90
4058;DHT22;2044;48.692;9.020;2023-05-28T01:53:05;7.90;99.90
4058;DHT22;2044;48.692;9.020;2023-05-28T01:55:32;7.90;99.90
4058;DHT22;2044;48.692;9.020;2023-05-28T01:57:59;7.90;99.90
4058;DHT22;2044;48.692;9.020;2023-05-28T02:00:27;7.80;99.90
4058;DHT22;2044;48.692;9.020;2023-05-28T02:02:54;7.70;99.90
4058;DHT22;2044;48.692;9.020;2023-05-28T02:07:48;7.60;99.90
4058;DHT22;2044;48.692;9.020;2023-05-28T02:10:15;7.70;99.90
4058;DHT22;2044;48.692;9.020;2023-05-28T02:12:41;7.70;99.90
4058;DHT22;2044;48.692;9.020;2023-05-28T02:15:09;7.60;99.90
4058;DHT22;2044;48.692;9.020;2023-05-28T02:17:37;7.60;99.90
4058;DHT22;2044;48.692;9.020;2023-05-28T02:20:05;7.50;99.90
4058;DHT22;2044;48.692;9.020;2023-05-28T02:22:32;7.50;99.90
4058;DHT22;2044;48.692;9.020;2023-05-28T02:24:58;7.50;99.90
4058;DHT22;2044;48.692;9.020;2023-05-28T02:27:25;7.50;99.90
4058;DHT22;2044;48.692;9.020;2023-05-28T02:29:52;7.40;99.90
4058;DHT22;2044;48.692;9.020;2023-05-28T02:32:19;7.30;99.90
4058;DHT22;2044;48.692;9.020;2023-05-28T02:34:47;7.30;99.90
4058;DHT22;2044;48.692;9.020;2023-05-28T02:37:13;7.30;99.90
4058;DHT22;2044;48.692;9.020;2023-05-28T02:39:40;7.30;99.90
4058;DHT22;2044;48.692;9.020;2023-05-28T02:44:34;7.30;99.90
4058;DHT22;2044;48.692;9.020;2023-05-28T02:47:01;7.20;99.90
4058;DHT22;2044;48.692;9.020;2023-05-28T02:49:27;7.10;99.90
4058;DHT22;2044;48.692;9.020;2023-05-28T02:54:23;7.00;99.90
4058;DHT22;2044;48.692;9.020;2023-05-28T02:56:51;7.00;99.90
4058;DHT22;2044;48.692;9.020;2023-05-28T03:01:45;7.00;99.90
4058;DHT22;2044;48.692;9.020;2023-05-28T03:04:11;6.90;99.90
4058;DHT22;2044;48.692;9.020;2023-05-28T03:06:38;6.90;99.90
4058;DHT22;2044;48.692;9.020;2023-05-28T03:09:08;7.10;99.90
4058;DHT22;2044;48.692;9.020;2023-05-28T03:11:34;7.10;99.90
4058;DHT22;2044;48.692;9.020;2023-05-28T03:14:01;6.90;99.90
4058;DHT22;2044;48.692;9.020;2023-05-28T03:16:28;6.90;99.90
4058;DHT22;2044;48.692;9.020;2023-05-28T03:18:57;6.90;99.90
4058;DHT22;2044;48.692;9.020;2023-05-28T03:21:24;6.90;99.90
4058;DHT22;2044;48.692;9.020;2023-05-28T03:23:51;6.90;99.90
4058;DHT22;2044;48.692;9.020;2023-05-28T03:26:19;6.90;99.90
4058;DHT22;2044;48.692;9.020;2023-05-28T03:28:46;6.80;99.90
4058;DHT22;2044;48.692;9.020;2023-05-28T03:31:14;6.80;99.90
4058;DHT22;2044;48.692;9.020;2023-05-28T03:33:40;6.80;99.90
4058;DHT22;2044;48.692;9.020;2023-05-28T03:36:08;6.90;99.90
4058;DHT22;2044;48.692;9.020;2023-05-28T03:38:35;6.80;99.90
4058;DHT22;2044;48.692;9.020;2023-05-28T03:41:02;6.80;99.90
4058;DHT22;2044;48.692;9.020;2023-05-28T03:43:30;6.90;99.90
4058;DHT22;2044;48.692;9.020;2023-05-28T03:46:00;6.90;99.90
4058;DHT22;2044;48.692;9.020;2023-05-28T03:48:26;7.00;99.90
4058;DHT22;2044;48.692;9.020;2023-05-28T03:50:53;7.00;99.90
4058;DHT22;2044;48.692;9.020;2023-05-28T03:53:21;7.10;99.90
4058;DHT22;2044;48.692;9.020;2023-05-28T03:55:47;7.10;99.90
4058;DHT22;2044;48.692;9.020;2023-05-28T03:58:16;7.30;99.90
4058;DHT22;2044;48.692;9.020;2023-05-28T04:00:44;7.30;99.90
4058;DHT22;2044;48.692;9.020;2023-05-28T04:03:11;7.30;99.90
4058;DHT22;2044;48.692;9.020;2023-05-28T04:05:38;7.30;99.90
4058;DHT22;2044;48.692;9.020;2023-05-28T04:08:04;7.80;99.90
4058;DHT22;2044;48.692;9.020;2023-05-28T04:10:31;7.90;99.90
4058;DHT22;2044;48.692;9.020;2023-05-28T04:12:58;8.60;99.90
4058;DHT22;2044;48.692;9.020;2023-05-28T04:15:25;8.60;99.90
4058;DHT22;2044;48.692;9.020;2023-05-28T04:17:52;8.90;99.90
4058;DHT22;2044;48.692;9.020;2023-05-28T04:20:19;9.20;99.90
4058;DHT22;2044;48.692;9.020;2023-05-28T04:22:47;9.50;99.90
4058;DHT22;2044;48.692;9.020;2023-05-28T04:25:13;10.50;99.90
4058;DHT22;2044;48.692;9.020;2023-05-28T04:30:11;11.20;99.90
4058;DHT22;2044;48.692;9.020;2023-05-28T04:32:38;12.00;99.90
4058;DHT22;2044;48.692;9.020;2023-05-28T04:35:07;12.80;99.90
4058;DHT22;2044;48.692;9.020;2023-05-28T04:37:34;12.90;99.90
4058;DHT22;2044;48.692;9.020;2023-05-28T04:40:02;13.50;99.90
4058;DHT22;2044;48.692;9.020;2023-05-28T04:42:29;14.00;99.90
4058;DHT22;2044;48.692;9.020;2023-05-28T04:44:56;14.50;99.90
4058;DHT22;2044;48.692;9.020;2023-05-28T04:47:23;14.90;99.90
4058;DHT22;2044;48.692;9.020;2023-05-28T04:49:50;15.40;99.90
4058;DHT22;2044;48.692;9.020;2023-05-28T04:52:18;16.00;99.90
4058;DHT22;2044;48.692;9.020;2023-05-28T04:54:45;16.60;99.90
4058;DHT22;2044;48.692;9.020;2023-05-28T04:57:12;17.00;99.90
4058;DHT22;2044;48.692;9.020;2023-05-28T04:59:38;16.90;99.90
4058;DHT22;2044;48.692;9.020;2023-05-28T05:02:05;17.00;99.90
4058;DHT22;2044;48.692;9.020;2023-05-28T05:04:32;16.30;99.90
4058;DHT22;2044;48.692;9.020;2023-05-28T05:06:58;16.40;99.90
4058;DHT22;2044;48.692;9.020;2023-05-28T05:09:27;16.90;99.90
4058;DHT22;2044;48.692;9.020;2023-05-28T05:11:56;17.00;99.90
4058;DHT22;2044;48.692;9.020;2023-05-28T05:14:22;18.30;99.90
4058;DHT22;2044;48.692;9.020;2023-05-28T05:16:49;18.50;99.90
4058;DHT22;2044;48.692;9.020;2023-05-28T05:19:16;18.60;99.90
4058;DHT22;2044;48.692;9.020;2023-05-28T05:21:42;18.80;99.90
4058;DHT22;2044;48.692;9.020;2023-05-28T05:24:09;19.70;99.90
4058;DHT22;2044;48.692;9.020;2023-05-28T05:26:37;20.00;99.90
4058;DHT22;2044;48.692;9.020;2023-05-28T05:29:04;20.90;99.90
4058;DHT22;2044;48.692;9.020;2023-05-28T05:31:30;21.30;99.90
4058;DHT22;2044;48.692;9.020;2023-05-28T05:33:57;22.20;99.90
4058;DHT22;2044;48.692;9.020;2023-05-28T05:36:24;22.30;99.90
4058;DHT22;2044;48.692;9.020;2023-05-28T05:38:51;22.90;99.90
4058;DHT22;2044;48.692;9.020;2023-05-28T05:41:18;23.10;99.90
4058;DHT22;2044;48.692;9.020;2023-05-28T05:43:46;23.70;99.90
4058;DHT22;2044;48.692;9.020;2023-05-28T05:46:12;23.70;99.90
4058;DHT22;2044;48.692;9.020;2023-05-28T05:48:40;23.30;99.90
4058;DHT22;2044;48.692;9.020;2023-05-28T05:51:07;24.00;99.90
4058;DHT22;2044;48.692;9.020;2023-05-28T05:53:39;25.10;99.90
4058;DHT22;2044;48.692;9.020;2023-05-28T05:56:06;25.10;99.90
4058;DHT22;2044;48.692;9.020;2023-05-28T05:58:34;25.60;99.90
4058;DHT22;2044;48.692;9.020;2023-05-28T06:01:02;26.00;99.90
4058;DHT22;2044;48.692;9.020;2023-05-28T06:03:29;26.40;99.90
4058;DHT22;2044;48.692;9.020;2023-05-28T06:05:56;26.40;99.90
4058;DHT22;2044;48.692;9.020;2023-05-28T06:08:22;26.60;99.90
4058;DHT22;2044;48.692;9.020;2023-05-28T06:10:50;26.40;99.90
4058;DHT22;2044;48.692;9.020;2023-05-28T06:13:17;26.70;99.90
4058;DHT22;2044;48.692;9.020;2023-05-28T06:15:43;26.60;99.90
4058;DHT22;2044;48.692;9.020;2023-05-28T06:18:11;27.90;99.90
4058;DHT22;2044;48.692;9.020;2023-05-28T06:20:38;28.60;99.90
4058;DHT22;2044;48.692;9.020;2023-05-28T06:23:06;29.30;99.90
4058;DHT22;2044;48.692;9.020;2023-05-28T06:25:32;29.40;99.90
4058;DHT22;2044;48.692;9.020;2023-05-28T06:28:00;29.00;99.90
4058;DHT22;2044;48.692;9.020;2023-05-28T06:30:27;29.20;99.90
4058;DHT22;2044;48.692;9.020;2023-05-28T06:32:54;30.00;99.90
4058;DHT22;2044;48.692;9.020;2023-05-28T06:35:22;30.50;99.90
4058;DHT22;2044;48.692;9.020;2023-05-28T06:37:49;30.50;99.90
4058;DHT22;2044;48.692;9.020;2023-05-28T06:40:16;31.30;99.90
4058;DHT22;2044;48.692;9.020;2023-05-28T06:42:42;31.00;99.90
4058;DHT22;2044;48.692;9.020;2023-05-28T06:45:10;30.70;99.90
4058;DHT22;2044;48.692;9.020;2023-05-28T06:47:37;30.80;99.90
4058;DHT22;2044;48.692;9.020;2023-05-28T06:50:05;29.40;99.90
4058;DHT22;2044;48.692;9.020;2023-05-28T06:52:33;29.50;99.90
4058;DHT22;2044;48.692;9.020;2023-05-28T06:55:00;27.60;99.90
4058;DHT22;2044;48.692;9.020;2023-05-28T06:57:26;25.50;99.90
4058;DHT22;2044;48.692;9.020;2023-05-28T06:59:53;24.70;99.90
4058;DHT22;2044;48.692;9.020;2023-05-28T07:02:20;25.30;99.90
4058;DHT22;2044;48.692;9.020;2023-05-28T07:04:49;24.80;99.90
4058;DHT22;2044;48.692;9.020;2023-05-28T07:07:15;24.90;99.90
4058;DHT22;2044;48.692;9.020;2023-05-28T07:09:43;24.50;99.90
4058;DHT22;2044;48.692;9.020;2023-05-28T07:12:10;23.00;99.90
4058;DHT22;2044;48.692;9.020;2023-05-28T07:14:37;23.00;99.90
4058;DHT22;2044;48.692;9.020;2023-05-28T07:17:04;23.60;99.90
4058;DHT22;2044;48.692;9.020;2023-05-28T07:19:31;23.90;99.90
4058;DHT22;2044;48.692;9.020;2023-05-28T07:21:58;23.50;99.90
4058;DHT22;2044;48.692;9.020;2023-05-28T07:24:25;22.20;99.90
4058;DHT22;2044;48.692;9.020;2023-05-28T07:26:53;22.20;99.90
4058;DHT22;2044;48.692;9.020;2023-05-28T07:29:19;23.50;99.90
4058;DHT22;2044;48.692;9.020;2023-05-28T07:31:46;23.90;99.90
4058;DHT22;2044;48.692;9.020;2023-05-28T07:34:13;25.10;99.90
4058;DHT22;2044;48.692;9.020;2023-05-28T07:36:39;25.30;99.90
4058;DHT22;2044;48.692;9.020;2023-05-28T07:39:06;26.10;99.90
4058;DHT22;2044;48.692;9.020;2023-05-28T07:41:35;24.10;99.90
4058;DHT22;2044;48.692;9.020;2023-05-28T07:44:03;24.80;99.90
4058;DHT22;2044;48.692;9.020;2023-05-28T07:46:31;25.30;99.90
4058;DHT22;2044;48.692;9.020;2023-05-28T07:48:58;25.90;99.90
4058;DHT22;2044;48.692;9.020;2023-05-28T07:51:25;25.40;99.90
4058;DHT22;2044;48.692;9.020;2023-05-28T07:53:52;24.70;99.90
4058;DHT22;2044;48.692;9.020;2023-05-28T07:56:19;24.50;99.90
4058;DHT22;2044;48.692;9.020;2023-05-28T07:58:46;24.20;99.90
4058;DHT22;2044;48.692;9.020;2023-05-28T08:01:16;24.90;99.90
4058;DHT22;2044;48.692;9.020;2023-05-28T08:03:43;24.70;99.90
4058;DHT22;2044;48.692;9.020;2023-05-28T08:06:09;24.70;99.90
4058;DHT22;2044;48.692;9.020;2023-05-28T08:08:36;23.70;99.90
4058;DHT22;2044;48.692;9.020;2023-05-28T08:11:03;23.70;99.90
4058;DHT22;2044;48.692;9.020;2023-05-28T08:13:29;25.90;99.90
4058;DHT22;2044;48.692;9.020;2023-05-28T08:15:58;26.20;99.90
4058;DHT22;2044;48.692;9.020;2023-05-28T08:18:26;26.60;99.90
4058;DHT22;2044;48.692;9.020;2023-05-28T08:20:53;26.60;99.90
4058;DHT22;2044;48.692;9.020;2023-05-28T08:23:20;29.20;99.90
4058;DHT22;2044;48.692;9.020;2023-05-28T08:25:46;29.30;99.90
4058;DHT22;2044;48.692;9.020;2023-05-28T08:28:16;31.80;99.90
4058;DHT22;2044;48.692;9.020;2023-05-28T08:30:43;32.70;99.90
4058;DHT22;2044;48.692;9.020;2023-05-28T08:33:09;30.80;99.90
4058;DHT22;2044;48.692;9.020;2023-05-28T08:35:37;28.70;99.90
4058;DHT22;2044;48.692;9.020;2023-05-28T08:38:04;28.60;99.90
4058;DHT22;2044;48.692;9.020;2023-05-28T08:40:34;27.10;99.90
4058;DHT22;2044;48.692;9.020;2023-05-28T08:43:04;26.70;99.90
4058;DHT22;2044;48.692;9.020;2023-05-28T08:45:31;27.70;99.90
4058;DHT22;2044;48.692;9.020;2023-05-28T08:47:59;27.50;99.90
4058;DHT22;2044;48.692;9.020;2023-05-28T08:50:27;27.40;99.90
4058;DHT22;2044;48.692;9.020;2023-05-28T08:52:56;26.80;99.90
4058;DHT22;2044;48.692;9.020;2023-05-28T08:55:25;26.30;99.90
4058;DHT22;2044;48.692;9.020;2023-05-28T08:57:52;27.40;99.90
4058;DHT22;2044;48.692;9.020;2023-05-28T09:00:20;27.50;99.90
4058;DHT22;2044;48.692;9.020;2023-05-28T09:02:49;26.30;99.90
4058;DHT22;2044;48.692;9.020;2023-05-28T09:05:17;26.00;99.90
4058;DHT22;2044;48.692;9.020;2023-05-28T09:07:43;25.50;99.90
4058;DHT22;2044;48.692;9.020;2023-05-28T09:10:12;26.60;99.90
4058;DHT22;2044;48.692;9.020;2023-05-28T09:12:39;27.30;99.90
4058;DHT22;2044;48.692;9.020;2023-05-28T09:15:07;27.50;99.90
4058;DHT22;2044;48.692;9.020;2023-05-28T09:17:35;27.90;99.90
4058;DHT22;2044;48.692;9.020;2023-05-28T09:20:08;26.80;99.90
4058;DHT22;2044;48.692;9.020;2023-05-28T09:22:36;26.00;99.90
4058;DHT22;2044;48.692;9.020;2023-05-28T09:25:06;24.90;99.90
4058;DHT22;2044;48.692;9.020;2023-05-28T09:27:35;24.90;99.90
4058;DHT22;2044;48.692;9.020;2023-05-28T09:30:03;25.50;99.90
4058;DHT22;2044;48.692;9.020;2023-05-28T09:32:33;24.90;99.90
4058;DHT22;2044;48.692;9.020;2023-05-28T09:35:00;25.30;99.90
4058;DHT22;2044;48.692;9.020;2023-05-28T09:37:28;25.40;99.90
4058;DHT22;2044;48.692;9.020;2023-05-28T09:40:00;26.30;99.90
4058;DHT22;2044;48.692;9.020;2023-05-28T09:42:32;27.30;99.90
4058;DHT22;2044;48.692;9.020;2023-05-28T09:45:01;26.50;99.90
4058;DHT22;2044;48.692;9.020;2023-05-28T09:47:29;24.50;99.90
4058;DHT22;2044;48.692;9.020;2023-05-28T09:52:22;24.00;99.90
4058;DHT22;2044;48.692;9.020;2023-05-28T09:54:51;25.80;99.90
4058;DHT22;2044;48.692;9.020;2023-05-28T09:57:23;25.60;99.90
4058;DHT22;2044;48.692;9.020;2023-05-28T09:59:53;25.40;99.90
4058;DHT22;2044;48.692;9.020;2023-05-28T10:02:28;25.40;99.90
4058;DHT22;2044;48.692;9.020;2023-05-28T10:05:02;24.90;99.90
4058;DHT22;2044;48.692;9.020;2023-05-28T10:07:33;25.10;99.90
4058;DHT22;2044;48.692;9.020;2023-05-28T10:10:01;24.30;99.90
4058;DHT22;2044;48.692;9.020;2023-05-28T10:12:29;24.90;99.90
4058;DHT22;2044;48.692;9.020;2023-05-28T10:14:56;25.30;99.90
4058;DHT22;2044;48.692;9.020;2023-05-28T10:17:25;25.30;99.90
4058;DHT22;2044;48.692;9.020;2023-05-28T10:19:52;24.80;99.90
4058;DHT22;2044;48.692;9.020;2023-05-28T10:22:19;24.40;99.90
4058;DHT22;2044;48.692;9.020;2023-05-28T10:24:46;24.80;99.90
4058;DHT22;2044;48.692;9.020;2023-05-28T10:27:14;25.30;99.90
4058;DHT22;2044;48.692;9.020;2023-05-28T10:29:42;25.00;99.90
4058;DHT22;2044;48.692;9.020;2023-05-28T10:32:08;24.50;99.90
4058;DHT22;2044;48.692;9.020;2023-05-28T10:34:37;24.80;99.90
4058;DHT22;2044;48.692;9.020;2023-05-28T10:37:06;25.40;99.90
4058;DHT22;2044;48.692;9.020;2023-05-28T10:39:40;25.10;99.90
4058;DHT22;2044;48.692;9.020;2023-05-28T10:42:07;25.40;99.90
4058;DHT22;2044;48.692;9.020;2023-05-28T10:45:04;24.80;99.90
4058;DHT22;2044;48.692;9.020;2023-05-28T10:47:33;24.80;99.90
4058;DHT22;2044;48.692;9.020;2023-05-28T10:50:10;24.70;99.90
4058;DHT22;2044;48.692;9.020;2023-05-28T10:52:37;24.80;99.90
4058;DHT22;2044;48.692;9.020;2023-05-28T10:55:06;25.00;99.90
4058;DHT22;2044;48.692;9.020;2023-05-28T10:57:42;25.00;99.90
4058;DHT22;2044;48.692;9.020;2023-05-28T11:00:09;25.50;99.90
4058;DHT22;2044;48.692;9.020;2023-05-28T11:02:39;25.80;99.90
4058;DHT22;2044;48.692;9.020;2023-05-28T11:05:08;25.10;99.90
4058;DHT22;2044;48.692;9.020;2023-05-28T11:07:37;24.60;99.90
4058;DHT22;2044;48.692;9.020;2023-05-28T11:10:06;24.90;99.90
4058;DHT22;2044;48.692;9.020;2023-05-28T11:12:35;25.70;99.90
4058;DHT22;2044;48.692;9.020;2023-05-28T11:15:03;24.90;99.90
4058;DHT22;2044;48.692;9.020;2023-05-28T11:17:30;24.90;99.90
4058;DHT22;2044;48.692;9.020;2023-05-28T11:20:02;25.10;99.90
4058;DHT22;2044;48.692;9.020;2023-05-28T11:22:34;26.00;99.90
4058;DHT22;2044;48.692;9.020;2023-05-28T11:25:06;25.40;99.90
4058;DHT22;2044;48.692;9.020;2023-05-28T11:27:34;25.70;99.90
4058;DHT22;2044;48.692;9.020;2023-05-28T11:30:06;26.90;99.90
4058;DHT22;2044;48.692;9.020;2023-05-28T11:32:34;28.10;99.90
4058;DHT22;2044;48.692;9.020;2023-05-28T11:35:02;26.60;99.90
4058;DHT22;2044;48.692;9.020;2023-05-28T11:37:34;26.00;99.90
4058;DHT22;2044;48.692;9.020;2023-05-28T11:40:02;26.30;99.90
4058;DHT22;2044;48.692;9.020;2023-05-28T11:42:31;27.00;99.90
4058;DHT22;2044;48.692;9.020;2023-05-28T11:44:58;27.80;99.90
4058;DHT22;2044;48.692;9.020;2023-05-28T11:47:25;28.60;99.90
4058;DHT22;2044;48.692;9.020;2023-05-28T11:49:53;29.40;99.90
4058;DHT22;2044;48.692;9.020;2023-05-28T11:52:23;29.20;99.90
4058;DHT22;2044;48.692;9.020;2023-05-28T11:54:54;28.30;99.90
4058;DHT22;2044;48.692;9.020;2023-05-28T11:57:24;27.30;99.90
4058;DHT22;2044;48.692;9.020;2023-05-28T11:59:55;25.50;99.90
4058;DHT22;2044;48.692;9.020;2023-05-28T12:04:55;26.60;99.90
4058;DHT22;2044;48.692;9.020;2023-05-28T12:07:21;26.70;99.90
4058;DHT22;2044;48.692;9.020;2023-05-28T12:09:48;26.00;99.90
4058;DHT22;2044;48.692;9.020;2023-05-28T12:12:16;25.90;99.90
4058;DHT22;2044;48.692;9.020;2023-05-28T12:14:45;27.70;99.90
4058;DHT22;2044;48.692;9.020;2023-05-28T12:17:12;27.40;99.90
4058;DHT22;2044;48.692;9.020;2023-05-28T12:22:13;27.00;99.90
4058;DHT22;2044;48.692;9.020;2023-05-28T12:24:47;27.60;99.90
4058;DHT22;2044;48.692;9.020;2023-05-28T12:27:16;27.90;99.90
4058;DHT22;2044;48.692;9.020;2023-05-28T12:29:43;28.10;99.90
4058;DHT22;2044;48.692;9.020;2023-05-28T12:32:11;27.40;99.90
4058;DHT22;2044;48.692;9.020;2023-05-28T12:34:38;26.70;99.90
4058;DHT22;2044;48.692;9.020;2023-05-28T12:37:05;26.70;99.90
4058;DHT22;2044;48.692;9.020;2023-05-28T12:39:32;27.20;99.90
4058;DHT22;2044;48.692;9.020;2023-05-28T12:42:01;28.10;99.90
4058;DHT22;2044;48.692;9.020;2023-05-28T12:44:29;29.10;99.90
4058;DHT22;2044;48.692;9.020;2023-05-28T12:46:56;28.90;99.90
4058;DHT22;2044;48.692;9.020;2023-05-28T12:49:23;28.20;99.90
4058;DHT22;2044;48.692;9.020;2023-05-28T12:51:50;27.80;99.90
4058;DHT22;2044;48.692;9.020;2023-05-28T12:54:16;28.00;99.90
4058;DHT22;2044;48.692;9.020;2023-05-28T12:56:43;28.00;99.90
4058;DHT22;2044;48.692;9.020;2023-05-28T12:59:20;27.60;99.90
4058;DHT22;2044;48.692;9.020;2023-05-28T13:01:48;28.00;99.90
4058;DHT22;2044;48.692;9.020;2023-05-28T13:04:15;28.20;99.90
4058;DHT22;2044;48.692;9.020;2023-05-28T13:06:42;28.50;99.90
4058;DHT22;2044;48.692;9.020;2023-05-28T13:11:37;28.80;99.90
4058;DHT22;2044;48.692;9.020;2023-05-28T13:14:04;28.40;99.90
4058;DHT22;2044;48.692;9.020;2023-05-28T13:16:31;27.70;99.90
4058;DHT22;2044;48.692;9.020;2023-05-28T13:18:59;28.40;99.90
4058;DHT22;2044;48.692;9.020;2023-05-28T13:21:27;29.30;99.90
4058;DHT22;2044;48.692;9.020;2023-05-28T13:23:53;29.70;99.90
4058;DHT22;2044;48.692;9.020;2023-05-28T13:26:21;29.80;99.90
4058;DHT22;2044;48.692;9.020;2023-05-28T13:28:48;29.80;99.90
4058;DHT22;2044;48.692;9.020;2023-05-28T13:31:15;30.10;99.90
4058;DHT22;2044;48.692;9.020;2023-05-28T13:33:42;30.00;99.90
4058;DHT22;2044;48.692;9.020;2023-05-28T13:36:11;30.10;99.90
4058;DHT22;2044;48.692;9.020;2023-05-28T13:38:41;30.20;99.90
4058;DHT22;2044;48.692;9.020;2023-05-28T13:41:07;30.50;99.90
4058;DHT22;2044;48.692;9.020;2023-05-28T13:43:35;29.90;99.90
4058;DHT22;2044;48.692;9.020;2023-05-28T13:46:03;29.80;99.90
4058;DHT22;2044;48.692;9.020;2023-05-28T13:48:30;29.40;99.90
4058;DHT22;2044;48.692;9.020;2023-05-28T13:50:57;29.30;99.90
4058;DHT22;2044;48.692;9.020;2023-05-28T13:53:26;28.80;99.90
4058;DHT22;2044;48.692;9.020;2023-05-28T13:55:53;28.80;99.90
4058;DHT22;2044;48.692;9.020;2023-05-28T13:58:20;28.50;99.90
4058;DHT22;2044;48.692;9.020;2023-05-28T14:00:47;29.00;99.90
4058;DHT22;2044;48.692;9.020;2023-05-28T14:03:14;28.80;99.90
4058;DHT22;2044;48.692;9.020;2023-05-28T14:05:42;28.90;99.90
4058;DHT22;2044;48.692;9.020;2023-05-28T14:08:09;28.90;99.90
4058;DHT22;2044;48.692;9.020;2023-05-28T14:10:37;29.50;99.90
4058;DHT22;2044;48.692;9.020;2023-05-28T14:13:04;29.50;99.90
4058;DHT22;2044;48.692;9.020;2023-05-28T14:15:31;29.90;99.90
4058;DHT22;2044;48.692;9.020;2023-05-28T14:20:25;28.00;99.90
4058;DHT22;2044;48.692;9.020;2023-05-28T14:22:52;28.50;99.90
4058;DHT22;2044;48.692;9.020;2023-05-28T14:25:19;28.80;99.90
4058;DHT22;2044;48.692;9.020;2023-05-28T14:27:47;29.10;99.90
4058;DHT22;2044;48.692;9.020;2023-05-28T14:30:14;29.00;99.90
4058;DHT22;2044;48.692;9.020;2023-05-28T14:32:41;28.20;99.90
4058;DHT22;2044;48.692;9.020;2023-05-28T14:35:08;26.90;99.90
4058;DHT22;2044;48.692;9.020;2023-05-28T14:37:35;26.80;99.90
4058;DHT22;2044;48.692;9.020;2023-05-28T14:40:02;26.80;99.90
4058;DHT22;2044;48.692;9.020;2023-05-28T14:42:30;27.20;99.90
4058;DHT22;2044;48.692;9.020;2023-05-28T14:44:58;26.20;99.90
4058;DHT22;2044;48.692;9.020;2023-05-28T14:47:24;26.30;99.90
4058;DHT22;2044;48.692;9.020;2023-05-28T14:49:52;26.60;99.90
4058;DHT22;2044;48.692;9.020;2023-05-28T14:52:23;27.30;99.90
4058;DHT22;2044;48.692;9.020;2023-05-28T14:54:50;27.70;99.90
4058;DHT22;2044;48.692;9.020;2023-05-28T14:57:17;27.90;99.90
4058;DHT22;2044;48.692;9.020;2023-05-28T14:59:44;28.00;99.90
4058;DHT22;2044;48.692;9.020;2023-05-28T15:02:13;27.90;99.90
4058;DHT22;2044;48.692;9.020;2023-05-28T15:04:41;28.10;99.90
4058;DHT22;2044;48.692;9.020;2023-05-28T15:07:08;28.20;99.90
4058;DHT22;2044;48.692;9.020;2023-05-28T15:09:35;28.10;99.90
4058;DHT22;2044;48.692;9.020;2023-05-28T15:12:03;28.00;99.90
4058;DHT22;2044;48.692;9.020;2023-05-28T15:14:31;27.50;99.90
4058;DHT22;2044;48.692;9.020;2023-05-28T15:16:58;27.40;99.90
4058;DHT22;2044;48.692;9.020;2023-05-28T15:19:26;27.10;99.90
4058;DHT22;2044;48.692;9.020;2023-05-28T15:21:53;26.50;99.90
4058;DHT22;2044;48.692;9.020;2023-05-28T15:24:20;26.20;99.90
4058;DHT22;2044;48.692;9.020;2023-05-28T15:26:47;26.10;99.90
4058;DHT22;2044;48.692;9.020;2023-05-28T15:29:15;26.10;99.90
4058;DHT22;2044;48.692;9.020;2023-05-28T15:31:45;26.30;99.90
4058;DHT22;2044;48.692;9.020;2023-05-28T15:34:12;26.40;99.90
4058;DHT22;2044;48.692;9.020;2023-05-28T15:36:41;26.40;99.90
4058;DHT22;2044;48.692;9.020;2023-05-28T15:41:36;26.80;99.90
4058;DHT22;2044;48.692;9.020;2023-05-28T15:44:03;27.50;99.90
4058;DHT22;2044;48.692;9.020;2023-05-28T15:46:31;27.40;99.90
4058;DHT22;2044;48.692;9.020;2023-05-28T15:48:58;27.70;99.90
4058;DHT22;2044;48.692;9.020;2023-05-28T15:51:25;27.80;99.90
4058;DHT22;2044;48.692;9.020;2023-05-28T15:53:54;26.90;99.90
4058;DHT22;2044;48.692;9.020;2023-05-28T15:56:20;26.80;99.90
4058;DHT22;2044;48.692;9.020;2023-05-28T15:58:47;26.80;99.90
4058;DHT22;2044;48.692;9.020;2023-05-28T16:01:15;26.30;99.90
4058;DHT22;2044;48.692;9.020;2023-05-28T16:03:42;26.50;99.90
4058;DHT22;2044;48.692;9.020;2023-05-28T16:06:09;26.50;99.90
4058;DHT22;2044;48.692;9.020;2023-05-28T16:11:07;26.60;99.90
4058;DHT22;2044;48.692;9.020;2023-05-28T16:13:39;26.50;99.90
4058;DHT22;2044;48.692;9.020;2023-05-28T16:16:07;26.40;99.90
4058;DHT22;2044;48.692;9.020;2023-05-28T16:18:34;26.20;99.90
4058;DHT22;2044;48.692;9.020;2023-05-28T16:21:01;26.30;99.90
4058;DHT22;2044;48.692;9.020;2023-05-28T16:23:29;26.10;99.90
4058;DHT22;2044;48.692;9.020;2023-05-28T16:25:57;26.20;99.90
4058;DHT22;2044;48.692;9.020;2023-05-28T16:28:25;26.60;99.90
4058;DHT22;2044;48.692;9.020;2023-05-28T16:30:54;26.50;99.90
4058;DHT22;2044;48.692;9.020;2023-05-28T16:33:21;25.80;99.90
4058;DHT22;2044;48.692;9.020;2023-05-28T16:35:49;25.70;99.90
4058;DHT22;2044;48.692;9.020;2023-05-28T16:38:16;25.60;99.90